sensor_id;sensor_type;location;lat;lon;timestamp;P1;durP1;ratioP1;P2;durP2;ratioP2
12906;SDS011;6521;50.498;8.474;2024-02-21T00:00:36;14.37;;;6.97;;
12906;SDS011;6521;50.498;8.474;2024-02-21T00:03:08;17.20;;;7.53;;
12906;SDS011;6521;50.498;8.474;2024-02-21T00:05:39;19.40;;;7.37;;
12906;SDS011;6521;50.498;8.474;2024-02-21T00:08:10;18.07;;;7.13;;
12906;SDS011;6521;50.498;8.474;2024-02-21T00:10:42;18.67;;;7.83;;
12906;SDS011;6521;50.498;8.474;2024-02-21T00:13:13;16.73;;;7.13;;
12906;SDS011;6521;50.498;8.474;2024-02-21T00:15:45;18.23;;;7.07;;
12906;SDS011;6521;50.498;8.474;2024-02-21T00:18:16;17.10;;;7.67;;
12906;SDS011;6521;50.498;8.474;2024-02-21T00:20:46;12.30;;;6.70;;
12906;SDS011;6521;50.498;8.474;2024-02-21T00:23:19;17.73;;;7.90;;
12906;SDS011;6521;50.498;8.474;2024-02-21T00:25:53;23.70;;;8.10;;
12906;SDS011;6521;50.498;8.474;2024-02-21T00:28:24;17.33;;;7.57;;
12906;SDS011;6521;50.498;8.474;2024-02-21T00:30:54;14.63;;;7.37;;
12906;SDS011;6521;50.498;8.474;2024-02-21T00:33:25;14.27;;;7.93;;
12906;SDS011;6521;50.498;8.474;2024-02-21T00:35:56;10.43;;;6.67;;
12906;SDS011;6521;50.498;8.474;2024-02-21T00:38:27;11.70;;;6.70;;
12906;SDS011;6521;50.498;8.474;2024-02-21T00:40:58;16.90;;;7.13;;
12906;SDS011;6521;50.498;8.474;2024-02-21T00:43:29;14.17;;;6.90;;
12906;SDS011;6521;50.498;8.474;2024-02-21T00:46:01;17.23;;;7.77;;
12906;SDS011;6521;50.498;8.474;2024-02-21T00:48:31;19.83;;;7.90;;
12906;SDS011;6521;50.498;8.474;2024-02-21T00:51:02;21.23;;;7.50;;
12906;SDS011;6521;50.498;8.474;2024-02-21T00:53:35;17.83;;;6.60;;
12906;SDS011;6521;50.498;8.474;2024-02-21T00:56:08;17.43;;;6.63;;
12906;SDS011;6521;50.498;8.474;2024-02-21T00:58:40;19.10;;;7.07;;
12906;SDS011;6521;50.498;8.474;2024-02-21T01:01:13;13.67;;;6.93;;
12906;SDS011;6521;50.498;8.474;2024-02-21T01:04:00;19.13;;;6.90;;
12906;SDS011;6521;50.498;8.474;2024-02-21T01:06:33;16.20;;;7.50;;
12906;SDS011;6521;50.498;8.474;2024-02-21T01:09:04;18.83;;;8.00;;
12906;SDS011;6521;50.498;8.474;2024-02-21T01:11:34;20.10;;;8.40;;
12906;SDS011;6521;50.498;8.474;2024-02-21T01:14:05;20.17;;;8.93;;
12906;SDS011;6521;50.498;8.474;2024-02-21T01:16:36;15.40;;;6.77;;
12906;SDS011;6521;50.498;8.474;2024-02-21T01:19:07;20.90;;;9.50;;
12906;SDS011;6521;50.498;8.474;2024-02-21T01:21:40;23.57;;;8.20;;
12906;SDS011;6521;50.498;8.474;2024-02-21T01:24:11;18.40;;;8.50;;
12906;SDS011;6521;50.498;8.474;2024-02-21T01:26:42;16.10;;;7.40;;
12906;SDS011;6521;50.498;8.474;2024-02-21T01:29:13;17.40;;;8.30;;
12906;SDS011;6521;50.498;8.474;2024-02-21T01:31:43;19.20;;;9.17;;
12906;SDS011;6521;50.498;8.474;2024-02-21T01:34:15;16.63;;;8.27;;
12906;SDS011;6521;50.498;8.474;2024-02-21T01:36:46;18.13;;;8.20;;
12906;SDS011;6521;50.498;8.474;2024-02-21T01:39:18;20.43;;;8.67;;
12906;SDS011;6521;50.498;8.474;2024-02-21T01:41:49;15.33;;;8.03;;
12906;SDS011;6521;50.498;8.474;2024-02-21T01:44:20;19.70;;;8.30;;
12906;SDS011;6521;50.498;8.474;2024-02-21T01:46:51;14.50;;;7.30;;
12906;SDS011;6521;50.498;8.474;2024-02-21T01:49:23;17.17;;;7.97;;
12906;SDS011;6521;50.498;8.474;2024-02-21T01:51:57;16.77;;;6.90;;
12906;SDS011;6521;50.498;8.474;2024-02-21T01:54:27;16.60;;;7.27;;
12906;SDS011;6521;50.498;8.474;2024-02-21T01:57:01;18.83;;;7.37;;
12906;SDS011;6521;50.498;8.474;2024-02-21T01:59:32;15.27;;;7.13;;
12906;SDS011;6521;50.498;8.474;2024-02-21T02:02:05;13.13;;;6.77;;
12906;SDS011;6521;50.498;8.474;2024-02-21T02:04:37;11.80;;;6.40;;
12906;SDS011;6521;50.498;8.474;2024-02-21T02:07:09;21.67;;;7.03;;
12906;SDS011;6521;50.498;8.474;2024-02-21T02:09:41;16.37;;;6.97;;
12906;SDS011;6521;50.498;8.474;2024-02-21T02:12:12;16.80;;;6.07;;
12906;SDS011;6521;50.498;8.474;2024-02-21T02:14:43;16.40;;;7.07;;
12906;SDS011;6521;50.498;8.474;2024-02-21T02:17:14;12.13;;;6.27;;
12906;SDS011;6521;50.498;8.474;2024-02-21T02:19:46;17.87;;;6.53;;
12906;SDS011;6521;50.498;8.474;2024-02-21T02:22:19;16.33;;;6.87;;
12906;SDS011;6521;50.498;8.474;2024-02-21T02:24:53;21.03;;;7.23;;
12906;SDS011;6521;50.498;8.474;2024-02-21T02:27:23;12.50;;;6.13;;
12906;SDS011;6521;50.498;8.474;2024-02-21T02:29:54;10.17;;;5.93;;
12906;SDS011;6521;50.498;8.474;2024-02-21T02:32:30;13.33;;;7.53;;
12906;SDS011;6521;50.498;8.474;2024-02-21T02:35:00;14.57;;;7.73;;
12906;SDS011;6521;50.498;8.474;2024-02-21T02:37:31;14.97;;;6.23;;
12906;SDS011;6521;50.498;8.474;2024-02-21T02:40:02;20.50;;;7.67;;
12906;SDS011;6521;50.498;8.474;2024-02-21T02:42:33;17.23;;;6.17;;
12906;SDS011;6521;50.498;8.474;2024-02-21T02:45:04;13.53;;;5.97;;
12906;SDS011;6521;50.498;8.474;2024-02-21T02:47:35;18.20;;;6.73;;
12906;SDS011;6521;50.498;8.474;2024-02-21T02:50:08;14.60;;;6.27;;
12906;SDS011;6521;50.498;8.474;2024-02-21T02:52:39;12.93;;;5.93;;
12906;SDS011;6521;50.498;8.474;2024-02-21T02:55:10;12.33;;;5.97;;
12906;SDS011;6521;50.498;8.474;2024-02-21T02:57:42;15.83;;;6.17;;
12906;SDS011;6521;50.498;8.474;2024-02-21T03:00:14;15.67;;;6.43;;
12906;SDS011;6521;50.498;8.474;2024-02-21T03:02:46;10.03;;;6.20;;
12906;SDS011;6521;50.498;8.474;2024-02-21T03:05:22;10.87;;;5.40;;
12906;SDS011;6521;50.498;8.474;2024-02-21T03:07:53;13.97;;;6.50;;
12906;SDS011;6521;50.498;8.474;2024-02-21T03:10:24;17.50;;;6.23;;
12906;SDS011;6521;50.498;8.474;2024-02-21T03:12:55;14.60;;;6.10;;
12906;SDS011;6521;50.498;8.474;2024-02-21T03:15:27;14.57;;;6.20;;
12906;SDS011;6521;50.498;8.474;2024-02-21T03:17:57;14.63;;;6.03;;
12906;SDS011;6521;50.498;8.474;2024-02-21T03:20:28;14.47;;;6.20;;
12906;SDS011;6521;50.498;8.474;2024-02-21T03:22:59;16.10;;;5.87;;
12906;SDS011;6521;50.498;8.474;2024-02-21T03:25:31;12.83;;;5.83;;
12906;SDS011;6521;50.498;8.474;2024-02-21T03:28:01;18.27;;;6.27;;
12906;SDS011;6521;50.498;8.474;2024-02-21T03:30:32;17.40;;;6.50;;
12906;SDS011;6521;50.498;8.474;2024-02-21T03:33:05;12.60;;;5.60;;
12906;SDS011;6521;50.498;8.474;2024-02-21T03:35:36;13.73;;;6.00;;
12906;SDS011;6521;50.498;8.474;2024-02-21T03:38:07;10.27;;;5.60;;
12906;SDS011;6521;50.498;8.474;2024-02-21T03:40:38;12.87;;;5.67;;
12906;SDS011;6521;50.498;8.474;2024-02-21T03:43:09;17.67;;;6.47;;
12906;SDS011;6521;50.498;8.474;2024-02-21T03:45:39;11.60;;;5.53;;
12906;SDS011;6521;50.498;8.474;2024-02-21T03:48:10;15.60;;;6.30;;
12906;SDS011;6521;50.498;8.474;2024-02-21T03:50:43;10.07;;;5.93;;
12906;SDS011;6521;50.498;8.474;2024-02-21T03:53:14;14.83;;;6.73;;
12906;SDS011;6521;50.498;8.474;2024-02-21T03:55:44;13.00;;;6.37;;
12906;SDS011;6521;50.498;8.474;2024-02-21T03:58:15;11.57;;;6.33;;
12906;SDS011;6521;50.498;8.474;2024-02-21T04:00:46;13.47;;;5.77;;
12906;SDS011;6521;50.498;8.474;2024-02-21T04:03:19;10.83;;;6.53;;
12906;SDS011;6521;50.498;8.474;2024-02-21T04:05:50;9.60;;;5.03;;
12906;SDS011;6521;50.498;8.474;2024-02-21T04:08:22;11.90;;;5.80;;
12906;SDS011;6521;50.498;8.474;2024-02-21T04:10:54;11.17;;;6.67;;
12906;SDS011;6521;50.498;8.474;2024-02-21T04:13:24;22.60;;;6.10;;
12906;SDS011;6521;50.498;8.474;2024-02-21T04:15:56;12.10;;;6.20;;
12906;SDS011;6521;50.498;8.474;2024-02-21T04:18:28;13.07;;;5.97;;
12906;SDS011;6521;50.498;8.474;2024-02-21T04:20:59;12.50;;;6.20;;
12906;SDS011;6521;50.498;8.474;2024-02-21T04:23:31;12.57;;;5.60;;
12906;SDS011;6521;50.498;8.474;2024-02-21T04:26:01;15.03;;;6.13;;
12906;SDS011;6521;50.498;8.474;2024-02-21T04:28:34;13.00;;;6.30;;
12906;SDS011;6521;50.498;8.474;2024-02-21T04:31:05;15.03;;;6.27;;
12906;SDS011;6521;50.498;8.474;2024-02-21T04:33:36;19.03;;;6.50;;
12906;SDS011;6521;50.498;8.474;2024-02-21T04:36:07;13.40;;;5.67;;
12906;SDS011;6521;50.498;8.474;2024-02-21T04:38:38;15.60;;;5.40;;
12906;SDS011;6521;50.498;8.474;2024-02-21T04:41:09;15.60;;;5.40;;
12906;SDS011;6521;50.498;8.474;2024-02-21T04:43:41;17.57;;;5.53;;
12906;SDS011;6521;50.498;8.474;2024-02-21T04:46:11;14.47;;;5.67;;
12906;SDS011;6521;50.498;8.474;2024-02-21T04:48:42;13.20;;;6.10;;
12906;SDS011;6521;50.498;8.474;2024-02-21T04:51:14;15.93;;;6.57;;
12906;SDS011;6521;50.498;8.474;2024-02-21T04:53:45;14.27;;;5.60;;
12906;SDS011;6521;50.498;8.474;2024-02-21T04:56:16;13.43;;;5.50;;
12906;SDS011;6521;50.498;8.474;2024-02-21T04:58:46;16.47;;;6.03;;
12906;SDS011;6521;50.498;8.474;2024-02-21T05:01:18;12.57;;;5.53;;
12906;SDS011;6521;50.498;8.474;2024-02-21T05:03:48;14.20;;;6.10;;
12906;SDS011;6521;50.498;8.474;2024-02-21T05:06:19;12.40;;;4.47;;
12906;SDS011;6521;50.498;8.474;2024-02-21T05:08:50;20.13;;;6.33;;
12906;SDS011;6521;50.498;8.474;2024-02-21T05:11:21;14.53;;;6.77;;
12906;SDS011;6521;50.498;8.474;2024-02-21T05:13:52;16.30;;;6.73;;
12906;SDS011;6521;50.498;8.474;2024-02-21T05:16:23;12.70;;;5.47;;
12906;SDS011;6521;50.498;8.474;2024-02-21T05:18:54;12.50;;;5.53;;
12906;SDS011;6521;50.498;8.474;2024-02-21T05:21:27;9.60;;;5.43;;
12906;SDS011;6521;50.498;8.474;2024-02-21T05:23:58;21.87;;;6.03;;
12906;SDS011;6521;50.498;8.474;2024-02-21T05:26:30;18.13;;;5.33;;
12906;SDS011;6521;50.498;8.474;2024-02-21T05:29:00;16.10;;;5.50;;
12906;SDS011;6521;50.498;8.474;2024-02-21T05:34:21;9.87;;;5.63;;
12906;SDS011;6521;50.498;8.474;2024-02-21T05:36:52;10.00;;;4.87;;
12906;SDS011;6521;50.498;8.474;2024-02-21T05:39:23;12.90;;;4.77;;
12906;SDS011;6521;50.498;8.474;2024-02-21T05:41:53;9.10;;;4.90;;
12906;SDS011;6521;50.498;8.474;2024-02-21T05:44:24;14.30;;;5.87;;
12906;SDS011;6521;50.498;8.474;2024-02-21T05:46:57;15.40;;;5.57;;
12906;SDS011;6521;50.498;8.474;2024-02-21T05:49:27;14.43;;;5.00;;
12906;SDS011;6521;50.498;8.474;2024-02-21T05:51:58;13.07;;;5.63;;
12906;SDS011;6521;50.498;8.474;2024-02-21T05:54:29;16.47;;;5.73;;
12906;SDS011;6521;50.498;8.474;2024-02-21T05:57:02;11.53;;;5.30;;
12906;SDS011;6521;50.498;8.474;2024-02-21T05:59:32;15.37;;;5.37;;
12906;SDS011;6521;50.498;8.474;2024-02-21T06:02:03;15.17;;;5.70;;
12906;SDS011;6521;50.498;8.474;2024-02-21T06:04:36;12.03;;;4.67;;
12906;SDS011;6521;50.498;8.474;2024-02-21T06:07:06;14.03;;;5.23;;
12906;SDS011;6521;50.498;8.474;2024-02-21T06:09:38;11.53;;;5.20;;
12906;SDS011;6521;50.498;8.474;2024-02-21T06:12:10;16.07;;;6.23;;
12906;SDS011;6521;50.498;8.474;2024-02-21T06:14:41;33.63;;;6.00;;
12906;SDS011;6521;50.498;8.474;2024-02-21T06:17:12;18.37;;;5.40;;
12906;SDS011;6521;50.498;8.474;2024-02-21T06:19:43;15.23;;;5.93;;
12906;SDS011;6521;50.498;8.474;2024-02-21T06:22:15;12.10;;;5.40;;
12906;SDS011;6521;50.498;8.474;2024-02-21T06:24:46;13.07;;;5.13;;
12906;SDS011;6521;50.498;8.474;2024-02-21T06:27:17;15.43;;;5.33;;
12906;SDS011;6521;50.498;8.474;2024-02-21T06:29:51;20.07;;;5.30;;
12906;SDS011;6521;50.498;8.474;2024-02-21T06:32:22;14.17;;;5.40;;
12906;SDS011;6521;50.498;8.474;2024-02-21T06:34:55;17.93;;;5.57;;
12906;SDS011;6521;50.498;8.474;2024-02-21T06:37:27;17.50;;;5.40;;
12906;SDS011;6521;50.498;8.474;2024-02-21T06:39:58;15.07;;;5.20;;
12906;SDS011;6521;50.498;8.474;2024-02-21T06:42:28;15.67;;;5.47;;
12906;SDS011;6521;50.498;8.474;2024-02-21T06:45:00;9.33;;;4.90;;
12906;SDS011;6521;50.498;8.474;2024-02-21T06:47:30;14.60;;;4.60;;
12906;SDS011;6521;50.498;8.474;2024-02-21T06:50:02;15.50;;;4.67;;
12906;SDS011;6521;50.498;8.474;2024-02-21T06:52:33;12.87;;;5.33;;
12906;SDS011;6521;50.498;8.474;2024-02-21T06:55:03;13.00;;;5.23;;
12906;SDS011;6521;50.498;8.474;2024-02-21T06:57:36;18.87;;;5.50;;
12906;SDS011;6521;50.498;8.474;2024-02-21T07:00:09;12.57;;;4.77;;
12906;SDS011;6521;50.498;8.474;2024-02-21T07:02:40;10.33;;;4.83;;
12906;SDS011;6521;50.498;8.474;2024-02-21T07:05:13;14.90;;;5.07;;
12906;SDS011;6521;50.498;8.474;2024-02-21T07:07:44;12.67;;;5.03;;
12906;SDS011;6521;50.498;8.474;2024-02-21T07:10:14;14.53;;;5.63;;
12906;SDS011;6521;50.498;8.474;2024-02-21T07:12:46;14.17;;;4.80;;
12906;SDS011;6521;50.498;8.474;2024-02-21T07:15:17;14.27;;;5.10;;
12906;SDS011;6521;50.498;8.474;2024-02-21T07:17:48;11.20;;;5.10;;
12906;SDS011;6521;50.498;8.474;2024-02-21T07:20:19;13.73;;;4.60;;
12906;SDS011;6521;50.498;8.474;2024-02-21T07:22:50;13.73;;;5.03;;
12906;SDS011;6521;50.498;8.474;2024-02-21T07:25:21;12.47;;;4.33;;
12906;SDS011;6521;50.498;8.474;2024-02-21T07:27:54;11.07;;;5.63;;
12906;SDS011;6521;50.498;8.474;2024-02-21T07:30:24;10.80;;;4.50;;
12906;SDS011;6521;50.498;8.474;2024-02-21T07:32:55;11.53;;;4.10;;
12906;SDS011;6521;50.498;8.474;2024-02-21T07:35:26;11.70;;;4.33;;
12906;SDS011;6521;50.498;8.474;2024-02-21T07:37:58;11.43;;;4.77;;
12906;SDS011;6521;50.498;8.474;2024-02-21T07:40:30;9.80;;;4.90;;
12906;SDS011;6521;50.498;8.474;2024-02-21T07:43:03;11.63;;;4.80;;
12906;SDS011;6521;50.498;8.474;2024-02-21T07:45:33;9.17;;;4.70;;
12906;SDS011;6521;50.498;8.474;2024-02-21T07:48:05;11.77;;;4.83;;
12906;SDS011;6521;50.498;8.474;2024-02-21T07:50:36;9.50;;;5.07;;
12906;SDS011;6521;50.498;8.474;2024-02-21T07:53:06;11.67;;;4.40;;
12906;SDS011;6521;50.498;8.474;2024-02-21T07:55:37;10.07;;;4.47;;
12906;SDS011;6521;50.498;8.474;2024-02-21T07:58:08;11.47;;;4.67;;
12906;SDS011;6521;50.498;8.474;2024-02-21T08:00:39;12.50;;;4.30;;
12906;SDS011;6521;50.498;8.474;2024-02-21T08:03:10;9.83;;;4.43;;
12906;SDS011;6521;50.498;8.474;2024-02-21T08:05:41;12.63;;;4.97;;
12906;SDS011;6521;50.498;8.474;2024-02-21T08:08:12;14.70;;;5.87;;
12906;SDS011;6521;50.498;8.474;2024-02-21T08:10:49;6.57;;;4.20;;
12906;SDS011;6521;50.498;8.474;2024-02-21T08:13:19;10.17;;;4.27;;
12906;SDS011;6521;50.498;8.474;2024-02-21T08:15:51;12.43;;;5.00;;
12906;SDS011;6521;50.498;8.474;2024-02-21T08:18:22;12.13;;;4.70;;
12906;SDS011;6521;50.498;8.474;2024-02-21T08:20:53;13.83;;;4.93;;
12906;SDS011;6521;50.498;8.474;2024-02-21T08:23:25;10.07;;;4.70;;
12906;SDS011;6521;50.498;8.474;2024-02-21T08:25:56;10.27;;;4.97;;
12906;SDS011;6521;50.498;8.474;2024-02-21T08:28:27;9.80;;;4.40;;
12906;SDS011;6521;50.498;8.474;2024-02-21T08:31:00;7.63;;;4.07;;
12906;SDS011;6521;50.498;8.474;2024-02-21T08:33:30;12.00;;;4.90;;
12906;SDS011;6521;50.498;8.474;2024-02-21T08:36:01;10.10;;;4.07;;
12906;SDS011;6521;50.498;8.474;2024-02-21T08:38:32;9.37;;;4.40;;
12906;SDS011;6521;50.498;8.474;2024-02-21T08:41:04;9.00;;;4.23;;
12906;SDS011;6521;50.498;8.474;2024-02-21T08:43:37;11.40;;;4.80;;
12906;SDS011;6521;50.498;8.474;2024-02-21T08:46:07;11.13;;;3.77;;
12906;SDS011;6521;50.498;8.474;2024-02-21T08:48:38;11.77;;;4.20;;
12906;SDS011;6521;50.498;8.474;2024-02-21T08:51:09;12.70;;;4.63;;
12906;SDS011;6521;50.498;8.474;2024-02-21T08:53:39;14.00;;;4.60;;
12906;SDS011;6521;50.498;8.474;2024-02-21T08:56:11;15.13;;;5.20;;
12906;SDS011;6521;50.498;8.474;2024-02-21T08:58:42;12.40;;;5.00;;
12906;SDS011;6521;50.498;8.474;2024-02-21T09:01:13;11.67;;;4.93;;
12906;SDS011;6521;50.498;8.474;2024-02-21T09:03:43;12.00;;;4.47;;
12906;SDS011;6521;50.498;8.474;2024-02-21T09:06:14;10.67;;;5.00;;
12906;SDS011;6521;50.498;8.474;2024-02-21T09:08:46;12.77;;;4.53;;
12906;SDS011;6521;50.498;8.474;2024-02-21T09:11:16;14.33;;;4.83;;
12906;SDS011;6521;50.498;8.474;2024-02-21T09:13:48;13.57;;;5.30;;
12906;SDS011;6521;50.498;8.474;2024-02-21T09:16:18;12.93;;;4.80;;
12906;SDS011;6521;50.498;8.474;2024-02-21T09:18:50;9.90;;;4.07;;
12906;SDS011;6521;50.498;8.474;2024-02-21T09:21:21;11.27;;;4.20;;
12906;SDS011;6521;50.498;8.474;2024-02-21T09:23:52;8.40;;;5.13;;
12906;SDS011;6521;50.498;8.474;2024-02-21T09:26:23;9.07;;;4.60;;
12906;SDS011;6521;50.498;8.474;2024-02-21T09:28:53;8.00;;;4.83;;
12906;SDS011;6521;50.498;8.474;2024-02-21T09:31:25;12.20;;;4.47;;
12906;SDS011;6521;50.498;8.474;2024-02-21T09:33:56;11.53;;;5.00;;
12906;SDS011;6521;50.498;8.474;2024-02-21T09:36:27;8.53;;;4.30;;
12906;SDS011;6521;50.498;8.474;2024-02-21T09:38:58;9.53;;;4.50;;
12906;SDS011;6521;50.498;8.474;2024-02-21T09:41:28;14.00;;;5.57;;
12906;SDS011;6521;50.498;8.474;2024-02-21T09:44:00;13.17;;;4.77;;
12906;SDS011;6521;50.498;8.474;2024-02-21T09:49:11;11.37;;;4.97;;
12906;SDS011;6521;50.498;8.474;2024-02-21T09:52:08;15.33;;;4.90;;
12906;SDS011;6521;50.498;8.474;2024-02-21T09:54:44;11.87;;;4.67;;
12906;SDS011;6521;50.498;8.474;2024-02-21T09:57:15;9.10;;;4.33;;
12906;SDS011;6521;50.498;8.474;2024-02-21T09:59:46;11.87;;;4.80;;
12906;SDS011;6521;50.498;8.474;2024-02-21T10:02:17;10.30;;;4.67;;
12906;SDS011;6521;50.498;8.474;2024-02-21T10:04:48;11.20;;;4.50;;
12906;SDS011;6521;50.498;8.474;2024-02-21T10:07:19;11.87;;;4.63;;
12906;SDS011;6521;50.498;8.474;2024-02-21T10:10:02;11.47;;;4.37;;
12906;SDS011;6521;50.498;8.474;2024-02-21T10:12:34;11.57;;;5.00;;
12906;SDS011;6521;50.498;8.474;2024-02-21T10:15:06;9.90;;;4.23;;
12906;SDS011;6521;50.498;8.474;2024-02-21T10:17:39;11.97;;;4.33;;
12906;SDS011;6521;50.498;8.474;2024-02-21T10:20:11;9.47;;;4.57;;
12906;SDS011;6521;50.498;8.474;2024-02-21T10:22:42;17.90;;;4.93;;
12906;SDS011;6521;50.498;8.474;2024-02-21T10:25:13;11.10;;;4.27;;
12906;SDS011;6521;50.498;8.474;2024-02-21T10:27:46;10.20;;;5.63;;
12906;SDS011;6521;50.498;8.474;2024-02-21T10:30:19;10.67;;;4.30;;
12906;SDS011;6521;50.498;8.474;2024-02-21T10:32:53;10.00;;;3.77;;
12906;SDS011;6521;50.498;8.474;2024-02-21T10:35:30;9.00;;;3.80;;
12906;SDS011;6521;50.498;8.474;2024-02-21T10:38:05;10.80;;;4.50;;
12906;SDS011;6521;50.498;8.474;2024-02-21T10:40:35;10.27;;;3.97;;
12906;SDS011;6521;50.498;8.474;2024-02-21T10:43:07;14.00;;;4.63;;
12906;SDS011;6521;50.498;8.474;2024-02-21T10:45:43;13.70;;;4.57;;
12906;SDS011;6521;50.498;8.474;2024-02-21T10:48:15;17.83;;;4.40;;
12906;SDS011;6521;50.498;8.474;2024-02-21T10:53:37;7.63;;;4.60;;
12906;SDS011;6521;50.498;8.474;2024-02-21T10:58:56;11.67;;;4.23;;
12906;SDS011;6521;50.498;8.474;2024-02-21T11:01:28;12.80;;;4.53;;
12906;SDS011;6521;50.498;8.474;2024-02-21T11:04:06;14.83;;;4.90;;
12906;SDS011;6521;50.498;8.474;2024-02-21T11:06:39;9.07;;;4.03;;
12906;SDS011;6521;50.498;8.474;2024-02-21T11:09:11;11.00;;;3.50;;
12906;SDS011;6521;50.498;8.474;2024-02-21T11:11:43;11.37;;;3.83;;
12906;SDS011;6521;50.498;8.474;2024-02-21T11:14:18;10.30;;;3.93;;
12906;SDS011;6521;50.498;8.474;2024-02-21T11:16:49;11.00;;;4.07;;
12906;SDS011;6521;50.498;8.474;2024-02-21T11:21:53;13.00;;;4.87;;
12906;SDS011;6521;50.498;8.474;2024-02-21T11:24:31;8.73;;;3.70;;
12906;SDS011;6521;50.498;8.474;2024-02-21T11:27:11;9.90;;;4.37;;
12906;SDS011;6521;50.498;8.474;2024-02-21T11:29:44;8.67;;;3.33;;
12906;SDS011;6521;50.498;8.474;2024-02-21T11:32:19;8.37;;;3.33;;
12906;SDS011;6521;50.498;8.474;2024-02-21T11:37:33;11.07;;;3.50;;
12906;SDS011;6521;50.498;8.474;2024-02-21T11:40:07;11.13;;;3.63;;
12906;SDS011;6521;50.498;8.474;2024-02-21T11:42:40;12.30;;;3.63;;
12906;SDS011;6521;50.498;8.474;2024-02-21T11:45:15;10.33;;;3.63;;
12906;SDS011;6521;50.498;8.474;2024-02-21T11:47:46;11.20;;;3.10;;
12906;SDS011;6521;50.498;8.474;2024-02-21T11:50:20;10.63;;;3.30;;
12906;SDS011;6521;50.498;8.474;2024-02-21T11:52:51;8.50;;;3.47;;
12906;SDS011;6521;50.498;8.474;2024-02-21T11:55:24;11.43;;;4.80;;
12906;SDS011;6521;50.498;8.474;2024-02-21T11:57:55;9.07;;;3.50;;
12906;SDS011;6521;50.498;8.474;2024-02-21T12:00:26;7.40;;;3.47;;
12906;SDS011;6521;50.498;8.474;2024-02-21T12:02:57;10.33;;;4.60;;
12906;SDS011;6521;50.498;8.474;2024-02-21T12:05:32;11.00;;;4.40;;
12906;SDS011;6521;50.498;8.474;2024-02-21T12:08:04;7.20;;;4.03;;
12906;SDS011;6521;50.498;8.474;2024-02-21T12:10:35;10.20;;;3.83;;
12906;SDS011;6521;50.498;8.474;2024-02-21T12:13:07;10.10;;;3.40;;
12906;SDS011;6521;50.498;8.474;2024-02-21T12:15:39;9.37;;;4.17;;
12906;SDS011;6521;50.498;8.474;2024-02-21T12:18:11;7.87;;;3.80;;
12906;SDS011;6521;50.498;8.474;2024-02-21T12:20:44;12.23;;;4.70;;
12906;SDS011;6521;50.498;8.474;2024-02-21T12:23:19;15.00;;;4.80;;
12906;SDS011;6521;50.498;8.474;2024-02-21T12:25:51;11.73;;;7.00;;
12906;SDS011;6521;50.498;8.474;2024-02-21T12:28:27;14.70;;;6.97;;
12906;SDS011;6521;50.498;8.474;2024-02-21T12:30:58;12.70;;;6.70;;
12906;SDS011;6521;50.498;8.474;2024-02-21T12:33:30;15.97;;;6.23;;
12906;SDS011;6521;50.498;8.474;2024-02-21T12:36:02;13.00;;;6.13;;
12906;SDS011;6521;50.498;8.474;2024-02-21T12:38:39;9.33;;;5.40;;
12906;SDS011;6521;50.498;8.474;2024-02-21T12:41:10;8.83;;;4.57;;
12906;SDS011;6521;50.498;8.474;2024-02-21T12:43:41;10.57;;;5.00;;
12906;SDS011;6521;50.498;8.474;2024-02-21T12:46:15;11.20;;;4.57;;
12906;SDS011;6521;50.498;8.474;2024-02-21T12:48:46;8.43;;;4.67;;
12906;SDS011;6521;50.498;8.474;2024-02-21T12:51:17;12.13;;;6.23;;
12906;SDS011;6521;50.498;8.474;2024-02-21T12:53:51;12.37;;;5.83;;
12906;SDS011;6521;50.498;8.474;2024-02-21T12:56:25;11.43;;;5.33;;
12906;SDS011;6521;50.498;8.474;2024-02-21T12:59:00;16.17;;;6.47;;
12906;SDS011;6521;50.498;8.474;2024-02-21T13:01:32;11.60;;;5.37;;
12906;SDS011;6521;50.498;8.474;2024-02-21T13:04:02;10.27;;;6.13;;
12906;SDS011;6521;50.498;8.474;2024-02-21T13:06:33;13.63;;;5.53;;
12906;SDS011;6521;50.498;8.474;2024-02-21T13:09:04;7.83;;;4.50;;
12906;SDS011;6521;50.498;8.474;2024-02-21T13:11:39;13.80;;;5.60;;
12906;SDS011;6521;50.498;8.474;2024-02-21T13:14:11;14.80;;;5.37;;
12906;SDS011;6521;50.498;8.474;2024-02-21T13:16:46;15.63;;;6.20;;
12906;SDS011;6521;50.498;8.474;2024-02-21T13:19:18;9.33;;;4.83;;
12906;SDS011;6521;50.498;8.474;2024-02-21T13:21:50;6.23;;;4.20;;
12906;SDS011;6521;50.498;8.474;2024-02-21T13:24:20;8.97;;;4.50;;
12906;SDS011;6521;50.498;8.474;2024-02-21T13:26:52;10.60;;;4.10;;
12906;SDS011;6521;50.498;8.474;2024-02-21T13:29:22;9.47;;;4.37;;
12906;SDS011;6521;50.498;8.474;2024-02-21T13:31:53;7.67;;;4.50;;
12906;SDS011;6521;50.498;8.474;2024-02-21T13:34:24;9.07;;;3.87;;
12906;SDS011;6521;50.498;8.474;2024-02-21T13:36:55;9.63;;;3.87;;
12906;SDS011;6521;50.498;8.474;2024-02-21T13:39:26;5.33;;;3.37;;
12906;SDS011;6521;50.498;8.474;2024-02-21T13:41:56;6.80;;;3.57;;
12906;SDS011;6521;50.498;8.474;2024-02-21T13:44:29;9.03;;;3.67;;
12906;SDS011;6521;50.498;8.474;2024-02-21T13:47:00;8.17;;;3.63;;
12906;SDS011;6521;50.498;8.474;2024-02-21T13:49:31;15.33;;;4.07;;
12906;SDS011;6521;50.498;8.474;2024-02-21T13:52:04;10.43;;;3.97;;
12906;SDS011;6521;50.498;8.474;2024-02-21T13:54:35;7.80;;;3.63;;
12906;SDS011;6521;50.498;8.474;2024-02-21T13:57:06;7.40;;;3.43;;
12906;SDS011;6521;50.498;8.474;2024-02-21T13:59:36;7.37;;;3.50;;
12906;SDS011;6521;50.498;8.474;2024-02-21T14:02:07;7.73;;;3.73;;
12906;SDS011;6521;50.498;8.474;2024-02-21T14:04:40;8.63;;;4.17;;
12906;SDS011;6521;50.498;8.474;2024-02-21T14:07:12;7.10;;;3.97;;
12906;SDS011;6521;50.498;8.474;2024-02-21T14:09:42;8.43;;;3.83;;
12906;SDS011;6521;50.498;8.474;2024-02-21T14:12:13;8.53;;;4.30;;
12906;SDS011;6521;50.498;8.474;2024-02-21T14:14:46;9.07;;;3.83;;
12906;SDS011;6521;50.498;8.474;2024-02-21T14:17:17;8.37;;;3.97;;
12906;SDS011;6521;50.498;8.474;2024-02-21T14:19:49;8.17;;;3.67;;
12906;SDS011;6521;50.498;8.474;2024-02-21T14:22:19;7.30;;;3.40;;
12906;SDS011;6521;50.498;8.474;2024-02-21T14:24:51;7.83;;;3.40;;
12906;SDS011;6521;50.498;8.474;2024-02-21T14:27:21;6.67;;;3.53;;
12906;SDS011;6521;50.498;8.474;2024-02-21T14:29:53;7.80;;;3.83;;
12906;SDS011;6521;50.498;8.474;2024-02-21T14:32:24;9.83;;;3.43;;
12906;SDS011;6521;50.498;8.474;2024-02-21T14:34:55;7.23;;;3.13;;
12906;SDS011;6521;50.498;8.474;2024-02-21T14:37:25;10.90;;;3.87;;
12906;SDS011;6521;50.498;8.474;2024-02-21T14:39:56;8.97;;;3.73;;
12906;SDS011;6521;50.498;8.474;2024-02-21T14:42:27;7.83;;;3.67;;
12906;SDS011;6521;50.498;8.474;2024-02-21T14:44:57;4.53;;;2.87;;
12906;SDS011;6521;50.498;8.474;2024-02-21T14:47:34;12.43;;;3.93;;
12906;SDS011;6521;50.498;8.474;2024-02-21T14:50:05;9.23;;;2.90;;
12906;SDS011;6521;50.498;8.474;2024-02-21T14:52:37;6.67;;;2.80;;
12906;SDS011;6521;50.498;8.474;2024-02-21T14:55:08;8.87;;;3.40;;
12906;SDS011;6521;50.498;8.474;2024-02-21T14:57:39;7.23;;;3.07;;
12906;SDS011;6521;50.498;8.474;2024-02-21T15:00:11;10.57;;;3.17;;
12906;SDS011;6521;50.498;8.474;2024-02-21T15:02:42;10.80;;;3.50;;
12906;SDS011;6521;50.498;8.474;2024-02-21T15:05:13;10.93;;;3.67;;
12906;SDS011;6521;50.498;8.474;2024-02-21T15:07:44;7.23;;;3.40;;
12906;SDS011;6521;50.498;8.474;2024-02-21T15:10:15;10.23;;;3.73;;
12906;SDS011;6521;50.498;8.474;2024-02-21T15:12:48;7.87;;;3.10;;
12906;SDS011;6521;50.498;8.474;2024-02-21T15:15:20;9.30;;;3.07;;
12906;SDS011;6521;50.498;8.474;2024-02-21T15:17:51;10.53;;;3.67;;
12906;SDS011;6521;50.498;8.474;2024-02-21T15:20:22;9.13;;;3.33;;
12906;SDS011;6521;50.498;8.474;2024-02-21T15:22:52;7.70;;;3.13;;
12906;SDS011;6521;50.498;8.474;2024-02-21T15:25:23;8.07;;;3.47;;
12906;SDS011;6521;50.498;8.474;2024-02-21T15:27:55;9.83;;;3.30;;
12906;SDS011;6521;50.498;8.474;2024-02-21T15:30:26;10.13;;;3.47;;
12906;SDS011;6521;50.498;8.474;2024-02-21T15:32:57;10.57;;;3.53;;